Anvle, Pennsylvania
Current Conditions -  °F | °C
As of 3:58 AM on Sunday 26 Oct 2014 (Local Time) from KMUI Reporting Station
Clear Clear  
Wind Chill: 60°   Ceiling: Unl
Heat Index: 60°   Visibility: 10mi
Dew Point: 37°   Wind: 12mph
Humidity: 43%   Direction: 280°W
Pressure: 29.66"   Gusts: 17mph
Location:  40.43°N, 76.56°W
Report Text: KMUI 260758Z AUTO 28010G15KT 250V320 10SM CLR 15/03 A2966 RMK AO2 PK WND 26026/05 SLP045 T01530026 $
Loading
Personal Weather Stations






























Interactive Weather Map
Tropical Storm Tracking
New forecast layout! Learn more

10-Day Weather Forecast

Advertisements
Track Severe Weather on mobile